sensor_id;sensor_type;location;lat;lon;timestamp;P1;durP1;ratioP1;P2;durP2;ratioP2
47737;SDS011;33502;47.182;27.506;2023-02-28T00:00:21;22.77;;;12.10;;
47737;SDS011;33502;47.182;27.506;2023-02-28T00:02:48;20.77;;;12.55;;
47737;SDS011;33502;47.182;27.506;2023-02-28T00:05:16;22.58;;;12.88;;
47737;SDS011;33502;47.182;27.506;2023-02-28T00:07:44;21.33;;;12.35;;
47737;SDS011;33502;47.182;27.506;2023-02-28T00:10:12;21.77;;;11.73;;
47737;SDS011;33502;47.182;27.506;2023-02-28T00:12:40;19.73;;;12.02;;
47737;SDS011;33502;47.182;27.506;2023-02-28T00:15:07;22.58;;;12.55;;
47737;SDS011;33502;47.182;27.506;2023-02-28T00:17:34;21.48;;;12.35;;
47737;SDS011;33502;47.182;27.506;2023-02-28T00:20:00;22.42;;;12.00;;
47737;SDS011;33502;47.182;27.506;2023-02-28T00:22:33;22.88;;;12.55;;
47737;SDS011;33502;47.182;27.506;2023-02-28T00:24:59;21.23;;;12.40;;
47737;SDS011;33502;47.182;27.506;2023-02-28T00:27:25;22.10;;;12.98;;
47737;SDS011;33502;47.182;27.506;2023-02-28T00:29:51;20.17;;;11.00;;
47737;SDS011;33502;47.182;27.506;2023-02-28T00:32:19;19.60;;;11.85;;
47737;SDS011;33502;47.182;27.506;2023-02-28T00:34:45;19.40;;;11.57;;
47737;SDS011;33502;47.182;27.506;2023-02-28T00:37:11;23.67;;;12.57;;
47737;SDS011;33502;47.182;27.506;2023-02-28T00:39:39;22.30;;;13.05;;
47737;SDS011;33502;47.182;27.506;2023-02-28T00:42:06;18.85;;;11.68;;
47737;SDS011;33502;47.182;27.506;2023-02-28T00:44:33;23.70;;;12.05;;
47737;SDS011;33502;47.182;27.506;2023-02-28T00:46:59;24.98;;;12.80;;
47737;SDS011;33502;47.182;27.506;2023-02-28T00:49:26;21.98;;;11.60;;
47737;SDS011;33502;47.182;27.506;2023-02-28T00:51:53;20.48;;;11.45;;
47737;SDS011;33502;47.182;27.506;2023-02-28T00:54:21;20.70;;;10.23;;
47737;SDS011;33502;47.182;27.506;2023-02-28T00:56:47;16.17;;;9.65;;
47737;SDS011;33502;47.182;27.506;2023-02-28T00:59:14;18.98;;;11.73;;
47737;SDS011;33502;47.182;27.506;2023-02-28T01:01:41;19.65;;;10.98;;
47737;SDS011;33502;47.182;27.506;2023-02-28T01:04:08;18.35;;;10.05;;
47737;SDS011;33502;47.182;27.506;2023-02-28T01:06:34;19.52;;;10.55;;
47737;SDS011;33502;47.182;27.506;2023-02-28T01:09:01;16.48;;;9.18;;
47737;SDS011;33502;47.182;27.506;2023-02-28T01:11:28;13.55;;;8.90;;
47737;SDS011;33502;47.182;27.506;2023-02-28T01:13:54;16.00;;;9.98;;
47737;SDS011;33502;47.182;27.506;2023-02-28T01:16:20;17.05;;;9.75;;
47737;SDS011;33502;47.182;27.506;2023-02-28T01:18:46;16.45;;;9.57;;
47737;SDS011;33502;47.182;27.506;2023-02-28T01:21:13;15.50;;;9.00;;
47737;SDS011;33502;47.182;27.506;2023-02-28T01:23:41;15.57;;;8.65;;
47737;SDS011;33502;47.182;27.506;2023-02-28T01:26:13;20.90;;;8.48;;
47737;SDS011;33502;47.182;27.506;2023-02-28T01:28:41;15.32;;;8.55;;
47737;SDS011;33502;47.182;27.506;2023-02-28T01:31:07;16.05;;;8.27;;
47737;SDS011;33502;47.182;27.506;2023-02-28T01:33:35;15.75;;;9.07;;
47737;SDS011;33502;47.182;27.506;2023-02-28T01:36:03;14.32;;;7.82;;
47737;SDS011;33502;47.182;27.506;2023-02-28T01:38:32;16.40;;;8.02;;
47737;SDS011;33502;47.182;27.506;2023-02-28T01:40:59;15.48;;;8.35;;
47737;SDS011;33502;47.182;27.506;2023-02-28T01:43:27;14.60;;;8.82;;
47737;SDS011;33502;47.182;27.506;2023-02-28T01:45:55;15.95;;;9.23;;
47737;SDS011;33502;47.182;27.506;2023-02-28T01:48:26;14.02;;;8.00;;
47737;SDS011;33502;47.182;27.506;2023-02-28T01:50:55;17.60;;;8.93;;
47737;SDS011;33502;47.182;27.506;2023-02-28T01:53:29;17.25;;;8.93;;
47737;SDS011;33502;47.182;27.506;2023-02-28T01:56:03;16.70;;;8.82;;
47737;SDS011;33502;47.182;27.506;2023-02-28T01:58:32;14.40;;;8.00;;
47737;SDS011;33502;47.182;27.506;2023-02-28T02:00:58;14.70;;;8.70;;
47737;SDS011;33502;47.182;27.506;2023-02-28T02:03:25;14.80;;;8.70;;
47737;SDS011;33502;47.182;27.506;2023-02-28T02:05:51;15.90;;;9.38;;
47737;SDS011;33502;47.182;27.506;2023-02-28T02:08:21;18.35;;;8.82;;
47737;SDS011;33502;47.182;27.506;2023-02-28T02:16:22;16.25;;;9.05;;
47737;SDS011;33502;47.182;27.506;2023-02-28T02:18:53;17.02;;;10.57;;
47737;SDS011;33502;47.182;27.506;2023-02-28T02:21:47;17.58;;;9.77;;
47737;SDS011;33502;47.182;27.506;2023-02-28T02:29:42;16.88;;;9.60;;
47737;SDS011;33502;47.182;27.506;2023-02-28T02:38:25;18.55;;;9.55;;
47737;SDS011;33502;47.182;27.506;2023-02-28T02:41:02;15.52;;;8.50;;
47737;SDS011;33502;47.182;27.506;2023-02-28T02:43:40;13.40;;;8.75;;
47737;SDS011;33502;47.182;27.506;2023-02-28T02:46:58;15.52;;;9.38;;
47737;SDS011;33502;47.182;27.506;2023-02-28T02:49:08;16.25;;;9.77;;
47737;SDS011;33502;47.182;27.506;2023-02-28T02:51:39;17.13;;;9.45;;
47737;SDS011;33502;47.182;27.506;2023-02-28T02:54:17;16.52;;;9.15;;
47737;SDS011;33502;47.182;27.506;2023-02-28T02:56:48;16.27;;;10.07;;
47737;SDS011;33502;47.182;27.506;2023-02-28T02:59:17;16.45;;;9.15;;
47737;SDS011;33502;47.182;27.506;2023-02-28T03:02:01;16.83;;;9.07;;
47737;SDS011;33502;47.182;27.506;2023-02-28T03:07:01;16.33;;;9.32;;
47737;SDS011;33502;47.182;27.506;2023-02-28T03:09:27;16.98;;;9.15;;
47737;SDS011;33502;47.182;27.506;2023-02-28T03:11:54;17.42;;;9.52;;
47737;SDS011;33502;47.182;27.506;2023-02-28T03:28:18;20.55;;;11.70;;
47737;SDS011;33502;47.182;27.506;2023-02-28T03:30:54;21.70;;;12.93;;
47737;SDS011;33502;47.182;27.506;2023-02-28T03:33:28;30.33;;;16.25;;
47737;SDS011;33502;47.182;27.506;2023-02-28T03:36:05;26.60;;;13.90;;
47737;SDS011;33502;47.182;27.506;2023-02-28T03:38:38;23.75;;;11.85;;
47737;SDS011;33502;47.182;27.506;2023-02-28T03:41:10;22.38;;;12.63;;
47737;SDS011;33502;47.182;27.506;2023-02-28T03:43:42;24.45;;;13.07;;
47737;SDS011;33502;47.182;27.506;2023-02-28T03:46:12;23.70;;;12.15;;
47737;SDS011;33502;47.182;27.506;2023-02-28T03:48:44;22.02;;;12.07;;
47737;SDS011;33502;47.182;27.506;2023-02-28T03:51:15;23.70;;;12.60;;
47737;SDS011;33502;47.182;27.506;2023-02-28T03:53:46;23.30;;;13.18;;
47737;SDS011;33502;47.182;27.506;2023-02-28T03:56:17;20.85;;;11.93;;
47737;SDS011;33502;47.182;27.506;2023-02-28T04:01:23;22.55;;;12.18;;
47737;SDS011;33502;47.182;27.506;2023-02-28T04:03:55;19.98;;;11.00;;
47737;SDS011;33502;47.182;27.506;2023-02-28T04:06:22;22.70;;;13.23;;
47737;SDS011;33502;47.182;27.506;2023-02-28T04:08:49;22.45;;;12.82;;
47737;SDS011;33502;47.182;27.506;2023-02-28T04:11:23;19.05;;;11.43;;
47737;SDS011;33502;47.182;27.506;2023-02-28T04:13:52;20.58;;;12.88;;
47737;SDS011;33502;47.182;27.506;2023-02-28T04:16:18;24.63;;;13.30;;
47737;SDS011;33502;47.182;27.506;2023-02-28T04:18:44;22.48;;;12.32;;
47737;SDS011;33502;47.182;27.506;2023-02-28T04:21:09;21.33;;;12.10;;
47737;SDS011;33502;47.182;27.506;2023-02-28T04:23:36;22.50;;;11.43;;
47737;SDS011;33502;47.182;27.506;2023-02-28T04:26:02;20.90;;;11.95;;
47737;SDS011;33502;47.182;27.506;2023-02-28T04:28:29;19.45;;;11.43;;
47737;SDS011;33502;47.182;27.506;2023-02-28T04:30:56;23.02;;;12.13;;
47737;SDS011;33502;47.182;27.506;2023-02-28T04:33:23;24.58;;;12.77;;
47737;SDS011;33502;47.182;27.506;2023-02-28T04:35:57;21.10;;;11.68;;
47737;SDS011;33502;47.182;27.506;2023-02-28T04:38:25;19.13;;;10.43;;
47737;SDS011;33502;47.182;27.506;2023-02-28T04:40:51;20.17;;;11.77;;
47737;SDS011;33502;47.182;27.506;2023-02-28T04:43:17;20.58;;;11.20;;
47737;SDS011;33502;47.182;27.506;2023-02-28T04:45:42;20.45;;;11.52;;
47737;SDS011;33502;47.182;27.506;2023-02-28T04:48:08;21.83;;;12.05;;
47737;SDS011;33502;47.182;27.506;2023-02-28T04:50:34;19.05;;;10.02;;
47737;SDS011;33502;47.182;27.506;2023-02-28T04:53:00;17.38;;;11.43;;
47737;SDS011;33502;47.182;27.506;2023-02-28T04:55:25;19.48;;;10.95;;
47737;SDS011;33502;47.182;27.506;2023-02-28T04:57:51;18.40;;;9.93;;
47737;SDS011;33502;47.182;27.506;2023-02-28T05:00:17;18.42;;;10.73;;
47737;SDS011;33502;47.182;27.506;2023-02-28T05:02:43;21.92;;;11.07;;
47737;SDS011;33502;47.182;27.506;2023-02-28T05:05:09;25.42;;;14.05;;
47737;SDS011;33502;47.182;27.506;2023-02-28T05:07:34;22.17;;;12.57;;
47737;SDS011;33502;47.182;27.506;2023-02-28T05:10:00;25.10;;;11.85;;
47737;SDS011;33502;47.182;27.506;2023-02-28T05:12:26;23.60;;;11.25;;
47737;SDS011;33502;47.182;27.506;2023-02-28T05:14:52;19.25;;;10.05;;
47737;SDS011;33502;47.182;27.506;2023-02-28T05:17:17;21.58;;;11.52;;
47737;SDS011;33502;47.182;27.506;2023-02-28T05:19:43;18.00;;;10.50;;
47737;SDS011;33502;47.182;27.506;2023-02-28T05:22:13;18.13;;;9.65;;
47737;SDS011;33502;47.182;27.506;2023-02-28T05:27:07;15.48;;;10.15;;
47737;SDS011;33502;47.182;27.506;2023-02-28T05:29:33;16.83;;;9.80;;
47737;SDS011;33502;47.182;27.506;2023-02-28T05:31:59;16.13;;;9.48;;
47737;SDS011;33502;47.182;27.506;2023-02-28T05:34:25;16.45;;;9.10;;
47737;SDS011;33502;47.182;27.506;2023-02-28T05:36:51;18.27;;;10.00;;
47737;SDS011;33502;47.182;27.506;2023-02-28T05:39:16;14.95;;;9.25;;
47737;SDS011;33502;47.182;27.506;2023-02-28T05:41:42;15.30;;;9.02;;
47737;SDS011;33502;47.182;27.506;2023-02-28T05:44:09;16.88;;;9.82;;
47737;SDS011;33502;47.182;27.506;2023-02-28T05:46:35;16.42;;;7.85;;
47737;SDS011;33502;47.182;27.506;2023-02-28T05:49:01;16.02;;;8.68;;
47737;SDS011;33502;47.182;27.506;2023-02-28T05:51:26;15.13;;;7.07;;
47737;SDS011;33502;47.182;27.506;2023-02-28T05:53:53;16.60;;;7.40;;
47737;SDS011;33502;47.182;27.506;2023-02-28T05:56:18;11.75;;;7.25;;
47737;SDS011;33502;47.182;27.506;2023-02-28T05:58:44;13.93;;;8.20;;
47737;SDS011;33502;47.182;27.506;2023-02-28T06:01:52;12.93;;;7.40;;
47737;SDS011;33502;47.182;27.506;2023-02-28T06:04:00;11.60;;;6.95;;
47737;SDS011;33502;47.182;27.506;2023-02-28T06:06:27;17.83;;;8.00;;
47737;SDS011;33502;47.182;27.506;2023-02-28T06:08:55;12.05;;;7.47;;
47737;SDS011;33502;47.182;27.506;2023-02-28T06:11:21;12.98;;;7.45;;
47737;SDS011;33502;47.182;27.506;2023-02-28T06:13:55;11.88;;;8.23;;
47737;SDS011;33502;47.182;27.506;2023-02-28T06:16:22;15.50;;;9.15;;
47737;SDS011;33502;47.182;27.506;2023-02-28T06:18:49;13.07;;;7.70;;
47737;SDS011;33502;47.182;27.506;2023-02-28T06:21:15;13.23;;;8.27;;
47737;SDS011;33502;47.182;27.506;2023-02-28T06:23:41;12.45;;;7.38;;
47737;SDS011;33502;47.182;27.506;2023-02-28T06:26:06;13.48;;;7.97;;
47737;SDS011;33502;47.182;27.506;2023-02-28T06:28:32;14.18;;;7.93;;
47737;SDS011;33502;47.182;27.506;2023-02-28T06:30:58;16.42;;;7.93;;
47737;SDS011;33502;47.182;27.506;2023-02-28T06:33:24;11.38;;;7.78;;
47737;SDS011;33502;47.182;27.506;2023-02-28T06:35:51;10.18;;;6.57;;
47737;SDS011;33502;47.182;27.506;2023-02-28T06:38:16;13.55;;;7.35;;
47737;SDS011;33502;47.182;27.506;2023-02-28T06:40:43;11.57;;;7.20;;
47737;SDS011;33502;47.182;27.506;2023-02-28T06:43:10;13.60;;;7.25;;
47737;SDS011;33502;47.182;27.506;2023-02-28T06:45:42;14.15;;;8.00;;
47737;SDS011;33502;47.182;27.506;2023-02-28T06:48:08;12.82;;;6.90;;
47737;SDS011;33502;47.182;27.506;2023-02-28T06:50:35;8.88;;;6.57;;
47737;SDS011;33502;47.182;27.506;2023-02-28T06:53:02;12.50;;;7.95;;
47737;SDS011;33502;47.182;27.506;2023-02-28T06:55:28;11.35;;;6.75;;
47737;SDS011;33502;47.182;27.506;2023-02-28T06:57:54;14.05;;;7.28;;
47737;SDS011;33502;47.182;27.506;2023-02-28T07:00:20;12.02;;;7.55;;
47737;SDS011;33502;47.182;27.506;2023-02-28T07:02:46;17.30;;;9.57;;
47737;SDS011;33502;47.182;27.506;2023-02-28T07:05:12;14.68;;;7.90;;
47737;SDS011;33502;47.182;27.506;2023-02-28T07:07:39;18.85;;;9.07;;
47737;SDS011;33502;47.182;27.506;2023-02-28T07:10:09;10.80;;;7.07;;
47737;SDS011;33502;47.182;27.506;2023-02-28T07:12:36;12.40;;;7.13;;
47737;SDS011;33502;47.182;27.506;2023-02-28T07:15:02;17.00;;;7.80;;
47737;SDS011;33502;47.182;27.506;2023-02-28T07:17:29;25.98;;;10.88;;
47737;SDS011;33502;47.182;27.506;2023-02-28T07:19:55;17.05;;;8.10;;
47737;SDS011;33502;47.182;27.506;2023-02-28T07:22:21;13.23;;;8.15;;
47737;SDS011;33502;47.182;27.506;2023-02-28T07:24:47;16.33;;;8.57;;
47737;SDS011;33502;47.182;27.506;2023-02-28T07:27:13;12.65;;;7.40;;
47737;SDS011;33502;47.182;27.506;2023-02-28T07:29:49;13.95;;;7.88;;
47737;SDS011;33502;47.182;27.506;2023-02-28T07:32:15;11.80;;;7.20;;
47737;SDS011;33502;47.182;27.506;2023-02-28T07:34:41;11.80;;;6.85;;
47737;SDS011;33502;47.182;27.506;2023-02-28T07:37:07;9.60;;;6.00;;
47737;SDS011;33502;47.182;27.506;2023-02-28T07:39:32;9.20;;;5.63;;
47737;SDS011;33502;47.182;27.506;2023-02-28T07:41:58;9.98;;;5.95;;
47737;SDS011;33502;47.182;27.506;2023-02-28T07:44:25;10.32;;;6.28;;
47737;SDS011;33502;47.182;27.506;2023-02-28T07:46:52;12.48;;;7.00;;
47737;SDS011;33502;47.182;27.506;2023-02-28T07:49:19;10.05;;;6.72;;
47737;SDS011;33502;47.182;27.506;2023-02-28T07:51:45;9.27;;;6.28;;
47737;SDS011;33502;47.182;27.506;2023-02-28T07:54:11;9.25;;;5.57;;
47737;SDS011;33502;47.182;27.506;2023-02-28T07:56:36;8.10;;;5.43;;
47737;SDS011;33502;47.182;27.506;2023-02-28T07:59:02;7.43;;;5.25;;
47737;SDS011;33502;47.182;27.506;2023-02-28T08:01:28;8.10;;;5.43;;
47737;SDS011;33502;47.182;27.506;2023-02-28T08:03:54;8.98;;;5.90;;
47737;SDS011;33502;47.182;27.506;2023-02-28T08:06:23;7.57;;;5.63;;
47737;SDS011;33502;47.182;27.506;2023-02-28T08:08:50;8.02;;;5.50;;
47737;SDS011;33502;47.182;27.506;2023-02-28T08:11:16;7.38;;;5.30;;
47737;SDS011;33502;47.182;27.506;2023-02-28T08:13:43;9.32;;;6.30;;
47737;SDS011;33502;47.182;27.506;2023-02-28T08:16:09;7.97;;;5.72;;
47737;SDS011;33502;47.182;27.506;2023-02-28T08:18:36;10.10;;;5.80;;
47737;SDS011;33502;47.182;27.506;2023-02-28T08:21:06;9.52;;;6.63;;
47737;SDS011;33502;47.182;27.506;2023-02-28T08:23:35;9.63;;;6.13;;
47737;SDS011;33502;47.182;27.506;2023-02-28T08:26:01;9.48;;;6.85;;
47737;SDS011;33502;47.182;27.506;2023-02-28T08:28:28;6.38;;;5.38;;
47737;SDS011;33502;47.182;27.506;2023-02-28T08:30:54;9.90;;;5.78;;
47737;SDS011;33502;47.182;27.506;2023-02-28T08:33:20;7.78;;;5.38;;
47737;SDS011;33502;47.182;27.506;2023-02-28T08:35:46;8.65;;;6.40;;
47737;SDS011;33502;47.182;27.506;2023-02-28T08:38:12;8.88;;;6.00;;
47737;SDS011;33502;47.182;27.506;2023-02-28T08:40:37;9.50;;;6.57;;
47737;SDS011;33502;47.182;27.506;2023-02-28T08:43:03;7.43;;;5.80;;
47737;SDS011;33502;47.182;27.506;2023-02-28T08:45:29;9.95;;;6.28;;
47737;SDS011;33502;47.182;27.506;2023-02-28T08:47:55;9.57;;;5.65;;
47737;SDS011;33502;47.182;27.506;2023-02-28T08:50:21;9.45;;;6.18;;
47737;SDS011;33502;47.182;27.506;2023-02-28T08:52:47;9.85;;;6.25;;
47737;SDS011;33502;47.182;27.506;2023-02-28T08:55:14;10.50;;;7.82;;
47737;SDS011;33502;47.182;27.506;2023-02-28T08:57:39;8.95;;;6.20;;
47737;SDS011;33502;47.182;27.506;2023-02-28T09:00:05;6.80;;;5.47;;
47737;SDS011;33502;47.182;27.506;2023-02-28T09:02:33;8.02;;;5.18;;
47737;SDS011;33502;47.182;27.506;2023-02-28T09:04:59;8.23;;;5.32;;
47737;SDS011;33502;47.182;27.506;2023-02-28T09:07:24;8.60;;;6.45;;
47737;SDS011;33502;47.182;27.506;2023-02-28T09:09:50;7.93;;;6.07;;
47737;SDS011;33502;47.182;27.506;2023-02-28T09:12:20;9.93;;;5.22;;
47737;SDS011;33502;47.182;27.506;2023-02-28T09:14:50;9.05;;;5.43;;
47737;SDS011;33502;47.182;27.506;2023-02-28T09:17:16;7.40;;;6.03;;
47737;SDS011;33502;47.182;27.506;2023-02-28T09:19:42;7.85;;;5.85;;
47737;SDS011;33502;47.182;27.506;2023-02-28T09:22:08;8.43;;;5.85;;
47737;SDS011;33502;47.182;27.506;2023-02-28T09:24:35;9.07;;;6.13;;
47737;SDS011;33502;47.182;27.506;2023-02-28T09:27:02;10.25;;;7.20;;
47737;SDS011;33502;47.182;27.506;2023-02-28T09:29:28;10.65;;;5.97;;
47737;SDS011;33502;47.182;27.506;2023-02-28T09:31:54;12.30;;;7.13;;
47737;SDS011;33502;47.182;27.506;2023-02-28T09:34:21;12.13;;;7.47;;
47737;SDS011;33502;47.182;27.506;2023-02-28T09:36:47;11.15;;;6.82;;
47737;SDS011;33502;47.182;27.506;2023-02-28T09:39:13;10.65;;;6.53;;
47737;SDS011;33502;47.182;27.506;2023-02-28T09:41:41;9.95;;;6.25;;
47737;SDS011;33502;47.182;27.506;2023-02-28T09:49:59;13.32;;;9.05;;
47737;SDS011;33502;47.182;27.506;2023-02-28T09:52:38;14.88;;;8.45;;
47737;SDS011;33502;47.182;27.506;2023-02-28T09:55:39;12.57;;;7.72;;
47737;SDS011;33502;47.182;27.506;2023-02-28T09:58:04;9.90;;;6.85;;
47737;SDS011;33502;47.182;27.506;2023-02-28T10:00:34;16.65;;;7.57;;
47737;SDS011;33502;47.182;27.506;2023-02-28T10:05:50;9.90;;;5.90;;
47737;SDS011;33502;47.182;27.506;2023-02-28T10:08:26;9.70;;;6.63;;
47737;SDS011;33502;47.182;27.506;2023-02-28T10:10:57;8.60;;;6.22;;
47737;SDS011;33502;47.182;27.506;2023-02-28T10:21:29;9.80;;;5.90;;
47737;SDS011;33502;47.182;27.506;2023-02-28T10:24:13;10.15;;;6.28;;
47737;SDS011;33502;47.182;27.506;2023-02-28T10:26:45;8.98;;;6.35;;
47737;SDS011;33502;47.182;27.506;2023-02-28T10:29:13;10.75;;;7.32;;
47737;SDS011;33502;47.182;27.506;2023-02-28T10:31:39;10.43;;;6.43;;
47737;SDS011;33502;47.182;27.506;2023-02-28T10:34:06;11.57;;;6.40;;
47737;SDS011;33502;47.182;27.506;2023-02-28T10:36:37;10.90;;;6.80;;
47737;SDS011;33502;47.182;27.506;2023-02-28T10:42:00;13.07;;;6.57;;
47737;SDS011;33502;47.182;27.506;2023-02-28T10:44:26;10.35;;;6.28;;
47737;SDS011;33502;47.182;27.506;2023-02-28T10:46:51;9.63;;;6.50;;
47737;SDS011;33502;47.182;27.506;2023-02-28T10:49:22;10.73;;;6.25;;
47737;SDS011;33502;47.182;27.506;2023-02-28T10:51:54;11.05;;;6.05;;
47737;SDS011;33502;47.182;27.506;2023-02-28T10:54:29;10.15;;;7.47;;
47737;SDS011;33502;47.182;27.506;2023-02-28T10:59:51;10.63;;;6.30;;
47737;SDS011;33502;47.182;27.506;2023-02-28T11:02:29;8.18;;;5.68;;
47737;SDS011;33502;47.182;27.506;2023-02-28T11:04:59;9.43;;;6.03;;
47737;SDS011;33502;47.182;27.506;2023-02-28T11:07:25;11.63;;;7.28;;
47737;SDS011;33502;47.182;27.506;2023-02-28T11:09:56;16.27;;;7.72;;
47737;SDS011;33502;47.182;27.506;2023-02-28T11:12:28;9.68;;;6.63;;
47737;SDS011;33502;47.182;27.506;2023-02-28T11:15:05;8.90;;;6.65;;
47737;SDS011;33502;47.182;27.506;2023-02-28T11:17:59;10.43;;;6.32;;
47737;SDS011;33502;47.182;27.506;2023-02-28T11:20:28;11.68;;;7.32;;
47737;SDS011;33502;47.182;27.506;2023-02-28T11:22:57;12.80;;;7.45;;
47737;SDS011;33502;47.182;27.506;2023-02-28T11:25:28;12.45;;;7.80;;
47737;SDS011;33502;47.182;27.506;2023-02-28T11:27:58;12.25;;;7.93;;
47737;SDS011;33502;47.182;27.506;2023-02-28T11:30:37;12.73;;;7.25;;
47737;SDS011;33502;47.182;27.506;2023-02-28T11:35:52;14.45;;;8.38;;
47737;SDS011;33502;47.182;27.506;2023-02-28T11:38:24;13.88;;;7.88;;
47737;SDS011;33502;47.182;27.506;2023-02-28T11:46:04;12.57;;;7.65;;
47737;SDS011;33502;47.182;27.506;2023-02-28T11:51:46;18.58;;;9.52;;
47737;SDS011;33502;47.182;27.506;2023-02-28T11:58:03;17.05;;;9.68;;
47737;SDS011;33502;47.182;27.506;2023-02-28T12:00:44;13.93;;;9.55;;
47737;SDS011;33502;47.182;27.506;2023-02-28T12:22:29;20.65;;;11.20;;
47737;SDS011;33502;47.182;27.506;2023-02-28T12:27:38;18.70;;;9.35;;
47737;SDS011;33502;47.182;27.506;2023-02-28T12:33:33;13.57;;;8.05;;
47737;SDS011;33502;47.182;27.506;2023-02-28T12:35:48;17.27;;;9.48;;
47737;SDS011;33502;47.182;27.506;2023-02-28T12:38:27;13.40;;;8.95;;
47737;SDS011;33502;47.182;27.506;2023-02-28T12:41:01;15.68;;;9.38;;
47737;SDS011;33502;47.182;27.506;2023-02-28T12:43:34;12.85;;;8.20;;
47737;SDS011;33502;47.182;27.506;2023-02-28T12:46:16;14.93;;;9.57;;
47737;SDS011;33502;47.182;27.506;2023-02-28T12:48:48;17.58;;;10.18;;
47737;SDS011;33502;47.182;27.506;2023-02-28T12:51:18;20.13;;;10.52;;
47737;SDS011;33502;47.182;27.506;2023-02-28T12:59:52;13.55;;;8.63;;
47737;SDS011;33502;47.182;27.506;2023-02-28T13:10:00;19.20;;;9.15;;
47737;SDS011;33502;47.182;27.506;2023-02-28T13:12:29;15.10;;;8.88;;
47737;SDS011;33502;47.182;27.506;2023-02-28T13:15:15;13.25;;;8.85;;
47737;SDS011;33502;47.182;27.506;2023-02-28T13:17:53;16.75;;;9.52;;
47737;SDS011;33502;47.182;27.506;2023-02-28T13:20:25;15.80;;;9.77;;
47737;SDS011;33502;47.182;27.506;2023-02-28T13:22:53;16.75;;;9.23;;
47737;SDS011;33502;47.182;27.506;2023-02-28T13:27:58;16.20;;;8.80;;
47737;SDS011;33502;47.182;27.506;2023-02-28T13:38:43;15.40;;;8.52;;
47737;SDS011;33502;47.182;27.506;2023-02-28T13:49:23;15.52;;;8.63;;
47737;SDS011;33502;47.182;27.506;2023-02-28T13:57:28;12.07;;;7.50;;
47737;SDS011;33502;47.182;27.506;2023-02-28T14:15:26;15.05;;;7.75;;
47737;SDS011;33502;47.182;27.506;2023-02-28T14:17:54;16.50;;;7.95;;
47737;SDS011;33502;47.182;27.506;2023-02-28T14:20:21;14.80;;;8.27;;
47737;SDS011;33502;47.182;27.506;2023-02-28T14:25:53;18.15;;;9.80;;
47737;SDS011;33502;47.182;27.506;2023-02-28T14:28:40;16.45;;;9.05;;
47737;SDS011;33502;47.182;27.506;2023-02-28T14:36:57;17.38;;;9.77;;
47737;SDS011;33502;47.182;27.506;2023-02-28T14:39:26;16.33;;;7.82;;
47737;SDS011;33502;47.182;27.506;2023-02-28T14:41:56;16.52;;;8.23;;
47737;SDS011;33502;47.182;27.506;2023-02-28T14:46:57;15.55;;;8.40;;
47737;SDS011;33502;47.182;27.506;2023-02-28T14:49:30;15.35;;;8.68;;
47737;SDS011;33502;47.182;27.506;2023-02-28T14:54:28;18.63;;;9.13;;
47737;SDS011;33502;47.182;27.506;2023-02-28T14:56:54;14.48;;;8.63;;
47737;SDS011;33502;47.182;27.506;2023-02-28T14:59:30;13.52;;;8.52;;
47737;SDS011;33502;47.182;27.506;2023-02-28T15:04:57;16.80;;;8.70;;
47737;SDS011;33502;47.182;27.506;2023-02-28T15:07:27;14.30;;;8.27;;
47737;SDS011;33502;47.182;27.506;2023-02-28T15:10:15;15.63;;;8.15;;
47737;SDS011;33502;47.182;27.506;2023-02-28T15:12:42;19.13;;;9.55;;
47737;SDS011;33502;47.182;27.506;2023-02-28T15:15:17;14.32;;;9.18;;
47737;SDS011;33502;47.182;27.506;2023-02-28T15:17:44;21.33;;;9.07;;
47737;SDS011;33502;47.182;27.506;2023-02-28T15:20:12;15.30;;;9.38;;
47737;SDS011;33502;47.182;27.506;2023-02-28T15:22:40;16.65;;;9.30;;
47737;SDS011;33502;47.182;27.506;2023-02-28T15:25:07;16.58;;;8.85;;
47737;SDS011;33502;47.182;27.506;2023-02-28T15:27:44;17.20;;;10.13;;
47737;SDS011;33502;47.182;27.506;2023-02-28T15:30:19;20.58;;;11.80;;
47737;SDS011;33502;47.182;27.506;2023-02-28T15:33:15;47.42;;;19.20;;
47737;SDS011;33502;47.182;27.506;2023-02-28T15:35:44;102.68;;;41.10;;
47737;SDS011;33502;47.182;27.506;2023-02-28T15:40:50;44.53;;;23.27;;
47737;SDS011;33502;47.182;27.506;2023-02-28T15:43:24;20.73;;;11.32;;
47737;SDS011;33502;47.182;27.506;2023-02-28T15:46:09;17.45;;;9.63;;
47737;SDS011;33502;47.182;27.506;2023-02-28T15:48:42;13.02;;;7.00;;
47737;SDS011;33502;47.182;27.506;2023-02-28T15:51:17;14.52;;;9.20;;
47737;SDS011;33502;47.182;27.506;2023-02-28T15:53:50;14.60;;;8.82;;
47737;SDS011;33502;47.182;27.506;2023-02-28T15:56:29;16.77;;;9.52;;
47737;SDS011;33502;47.182;27.506;2023-02-28T15:58:58;14.35;;;8.38;;
47737;SDS011;33502;47.182;27.506;2023-02-28T16:01:34;17.40;;;9.45;;
47737;SDS011;33502;47.182;27.506;2023-02-28T16:04:06;16.20;;;9.77;;
47737;SDS011;33502;47.182;27.506;2023-02-28T16:06:40;17.73;;;10.32;;
47737;SDS011;33502;47.182;27.506;2023-02-28T16:09:11;19.42;;;10.13;;
47737;SDS011;33502;47.182;27.506;2023-02-28T16:11:40;17.52;;;9.23;;
47737;SDS011;33502;47.182;27.506;2023-02-28T16:14:18;17.35;;;9.60;;
47737;SDS011;33502;47.182;27.506;2023-02-28T16:16:49;15.85;;;10.40;;
47737;SDS011;33502;47.182;27.506;2023-02-28T16:19:18;16.00;;;10.20;;
47737;SDS011;33502;47.182;27.506;2023-02-28T16:21:44;25.13;;;13.25;;
47737;SDS011;33502;47.182;27.506;2023-02-28T16:24:10;24.83;;;12.65;;
47737;SDS011;33502;47.182;27.506;2023-02-28T16:26:36;18.35;;;10.15;;
47737;SDS011;33502;47.182;27.506;2023-02-28T16:29:05;19.60;;;9.63;;
47737;SDS011;33502;47.182;27.506;2023-02-28T16:31:36;17.85;;;10.50;;
47737;SDS011;33502;47.182;27.506;2023-02-28T16:34:04;18.33;;;10.57;;
47737;SDS011;33502;47.182;27.506;2023-02-28T16:36:29;21.40;;;10.98;;
47737;SDS011;33502;47.182;27.506;2023-02-28T16:38:56;20.15;;;10.57;;
47737;SDS011;33502;47.182;27.506;2023-02-28T16:41:23;21.65;;;11.40;;
47737;SDS011;33502;47.182;27.506;2023-02-28T16:43:52;22.08;;;11.80;;
47737;SDS011;33502;47.182;27.506;2023-02-28T16:46:24;28.05;;;12.65;;
47737;SDS011;33502;47.182;27.506;2023-02-28T16:48:57;24.38;;;12.48;;
47737;SDS011;33502;47.182;27.506;2023-02-28T16:51:22;19.35;;;11.13;;
47737;SDS011;33502;47.182;27.506;2023-02-28T16:53:48;24.38;;;12.45;;
47737;SDS011;33502;47.182;27.506;2023-02-28T16:56:23;27.00;;;13.18;;
47737;SDS011;33502;47.182;27.506;2023-02-28T16:58:50;26.10;;;14.82;;
47737;SDS011;33502;47.182;27.506;2023-02-28T17:01:17;20.77;;;13.70;;
47737;SDS011;33502;47.182;27.506;2023-02-28T17:03:47;24.83;;;14.35;;
47737;SDS011;33502;47.182;27.506;2023-02-28T17:06:16;18.98;;;11.75;;
47737;SDS011;33502;47.182;27.506;2023-02-28T17:08:48;25.23;;;12.45;;
47737;SDS011;33502;47.182;27.506;2023-02-28T17:11:16;19.38;;;11.52;;
47737;SDS011;33502;47.182;27.506;2023-02-28T17:13:42;19.98;;;11.43;;
47737;SDS011;33502;47.182;27.506;2023-02-28T17:18:58;22.85;;;13.02;;
47737;SDS011;33502;47.182;27.506;2023-02-28T17:21:25;21.40;;;12.65;;
47737;SDS011;33502;47.182;27.506;2023-02-28T17:23:52;20.17;;;11.40;;
47737;SDS011;33502;47.182;27.506;2023-02-28T17:26:19;20.73;;;12.60;;